Union, KY

2:57 PM EDT on August 27, 2014 (GMT -0400)
Cincinnati Municipal-Lunken | Change Station
CLOSE
Current Station
Airport
Location: Cincinnati,
Elevation: 482 ft
Nearby Weather Stations

Elev 482 ft 39.10 °N, 84.42 °W | Updated 1 hour ago

Scattered Clouds
Scattered Clouds
90 °F
Feels Like 98 °F
N
6
Wind Variable Wind from Variable

Today
High -- | Low -- °F
--% Chance of Precip.
Yesterday
High -- | Low -- °F
Precip. -- in
7:03 AM 8:16 PM
Waxing Crescent, 4% visible
Pressure 30.05 in
Visibility 10.0 miles
Clouds Scattered Clouds 4300 ft
Heat Index 98 °F
Dew Point 73 °F
Humidity 57%
Rainfall 0.00 in
Snow Depth Not available.
UV 8 out of 12
Pollen 10.70 out of 12
Air Quality Not available.
Flu Activity Not available.
METAR KLUK 271753Z VRB05KT 10SM SCT043 32/23 A3006 RMK AO2 SLP175 T03220228 10328 20206 58012

More Conditions Fewer Conditions

Pressure 30.05 in
Visibility 10.0 miles
Clouds Scattered Clouds 4300 ft
Heat Index 98 °F
Dew Point 73 °F
Humidity 57%
Rainfall 0.00 in
Snow Depth Not available.
UV 8 out of 12
Pollen 10.70 out of 12
Air Quality Not available.
Flu Activity Not available.
METAR KLUK 271753Z VRB05KT 10SM SCT043 32/23 A3006 RMK AO2 SLP175 T03220228 10328 20206 58012

More Conditions Fewer Conditions

10-Day Weather Forecast

Almanac

Astronomy

Aug. 27, 2014 Rise Set
Actual Time 7:03 AM EDT 8:16 PM EDT
Civil Twilight 6:35 AM EDT 8:44 PM EDT
Nautical Twilight 6:02 AM EDT 9:17 PM EDT
Astronomical Twilight 5:28 AM EDT 9:51 PM EDT
Moon 8:57 AM EDT 9:10 PM EDT
Length of Visible Light 14h 08m
Length of Day
13h 13m
Tomorrow will be 2m 24s shorter.
Waxing Crescent, 4% of the Moon is Illuminated
Today
Waxing Crescent
Sep 2
First Quarter
Sep 8
Full
Sep 15
Last Quarter
Sep 24
New

Today's Extremes

State Highs State Lows

Community

WunderPhotos

Upload Photos

1,747,752 photos uploaded!

Nearby

Snow Depth

Station Depth Elevation
No new snow has been reported.

Earthquake Activity

City Distance Mag. Time & Date
No recent earthquake activity has been reported nearby.
Minimum magnitude displayed is 2.5.

Coastal Water Temperatures

Place Temperature
No Stations Reporting

Nearby Weather Stations